Time;durP1;ratioP1;P1;durP2;ratioP2;P2;SDS_P1;SDS_P2;PMS_P1;PMS_P2;Temp;Humidity;BMP_temperature;BMP_pressure;BME280_temperature;BME280_humidity;BME280_pressure;Samples;Min_cycle;Max_cycle;Signal;HPM_P1;HPM_P2
2021/06/24 00:06:36;;;;;;;14.13;12.67;;;;;;;19.17;74.78;99737.27;524680;1089;117042;-65
2021/06/24 00:16:42;;;;;;;13.17;11.87;;;;;;;19.30;74.57;99718.27;532629;1089;116407;-66
2021/06/24 00:26:49;;;;;;;13.43;12.17;;;;;;;19.38;74.65;99702.34;530551;1088;116934;-65
2021/06/24 00:36:56;;;;;;;11.93;10.83;;;;;;;19.59;74.61;99698.53;532571;1088;118198;-65
2021/06/24 00:47:02;;;;;;;13.83;12.40;;;;;;;19.58;74.81;99683.55;532449;1089;117483;-64
2021/06/24 00:57:09;;;;;;;16.40;14.77;;;;;;;19.52;74.95;99661.03;531937;1089;116957;-65
2021/06/24 01:07:16;;;;;;;16.83;15.17;;;;;;;19.68;75.30;99636.34;532555;1090;115862;-64
2021/06/24 01:17:23;;;;;;;17.93;15.47;;;;;;;19.82;74.93;99642.93;532600;1090;117465;-65
2021/06/24 01:27:31;;;;;;;17.07;15.33;;;;;;;19.94;75.13;99650.69;531821;1090;172757;-65
2021/06/24 01:37:37;;;;;;;15.30;13.43;;;;;;;20.00;74.87;99656.22;532566;1090;117102;-65
2021/06/24 01:47:44;;;;;;;13.90;12.50;;;;;;;20.07;74.98;99650.23;531848;1089;117113;-64
2021/06/24 01:57:50;;;;;;;15.20;13.80;;;;;;;20.18;74.93;99683.80;532514;1090;118285;-66
2021/06/24 02:07:57;;;;;;;13.80;12.40;;;;;;;20.14;75.04;99684.12;532552;1089;116593;-65
2021/06/24 02:18:04;;;;;;;15.30;13.83;;;;;;;20.20;75.01;99689.80;531744;1088;116666;-67
2021/06/24 02:28:10;;;;;;;17.43;14.53;;;;;;;20.20;74.57;99695.13;532558;1089;116342;-65
2021/06/24 02:38:18;;;;;;;15.57;13.93;;;;;;;20.30;74.36;99688.67;532614;1089;115718;-66
2021/06/24 02:48:24;;;;;;;17.33;15.35;;;;;;;20.41;73.56;99684.90;531737;1089;116696;-65
2021/06/24 02:58:31;;;;;;;18.13;16.33;;;;;;;20.48;73.22;99701.09;532527;1089;116752;-65
2021/06/24 03:08:37;;;;;;;17.93;14.97;;;;;;;20.48;72.78;99658.42;532623;1089;116609;-65
2021/06/24 03:18:45;;;;;;;19.60;15.07;;;;;;;20.40;72.82;99637.05;532567;1090;118338;-65
2021/06/24 03:28:51;;;;;;;17.70;15.10;;;;;;;20.51;73.03;99622.60;531234;1089;116677;-65
2021/06/24 03:38:58;;;;;;;15.57;13.50;;;;;;;20.75;72.25;99672.50;531836;1089;117906;-65
2021/06/24 03:49:04;;;;;;;16.40;14.87;;;;;;;20.68;72.24;99637.63;532612;1090;117009;-65
2021/06/24 03:59:11;;;;;;;15.73;13.27;;;;;;;20.79;72.08;99660.52;532437;1090;116912;-65
2021/06/24 04:09:17;;;;;;;17.77;13.37;;;;;;;21.13;71.79;99645.41;531798;1089;116858;-66
2021/06/24 04:19:24;;;;;;;17.00;14.10;;;;;;;21.23;71.19;99640.73;532480;1088;117776;-66
2021/06/24 04:29:30;;;;;;;18.40;15.03;;;;;;;20.86;71.27;99620.70;532594;1090;117278;-65
2021/06/24 04:39:36;;;;;;;15.47;13.90;;;;;;;20.67;72.05;99629.81;531880;1089;116892;-65
2021/06/24 04:49:53;;;;;;;16.30;13.47;;;;;;;20.60;72.23;99634.94;532441;1089;116567;-66
2021/06/24 05:00:00;;;;;;;17.25;14.00;;;;;;;20.55;73.16;99613.27;531605;1089;116657;-66
2021/06/24 05:10:08;;;;;;;16.17;13.93;;;;;;;20.43;73.80;99764.72;532570;1089;117719;-66
2021/06/24 05:20:15;;;;;;;11.30;8.68;;;;;;;19.82;75.20;99724.67;532552;1090;116161;-65
2021/06/24 05:30:23;;;;;;;7.63;4.63;;;;;;;19.35;75.56;99636.11;531792;1088;116427;-64
2021/06/24 05:40:30;;;;;;;12.00;7.33;;;;;;;18.89;77.04;99636.19;532556;1089;117229;-64
2021/06/24 05:50:37;;;;;;;5.80;4.70;;;;;;;18.40;76.17;99583.33;532558;1090;165020;-65
2021/06/24 06:00:44;;;;;;;5.13;3.47;;;;;;;18.31;75.57;99603.67;532569;1088;116228;-65
2021/06/24 06:10:51;;;;;;;4.33;3.37;;;;;;;18.31;75.85;99588.55;532594;1090;116104;-66
2021/06/24 06:20:59;;;;;;;5.30;3.10;;;;;;;18.33;75.76;99676.94;531800;1088;116070;-66
2021/06/24 06:31:07;;;;;;;8.13;6.43;;;;;;;18.08;76.80;99625.32;532542;1089;116010;-66
2021/06/24 06:41:13;;;;;;;10.25;6.20;;;;;;;17.82;77.93;99534.80;532494;1088;115948;-70
2021/06/24 06:51:22;;;;;;;8.17;5.43;;;;;;;17.70;78.94;99470.42;531786;1090;117020;-68
2021/06/24 07:01:29;;;;;;;9.60;7.10;;;;;;;17.61;79.55;99515.47;532559;1089;115797;-63
2021/06/24 07:11:35;;;;;;;10.83;9.10;;;;;;;17.78;80.11;99443.97;532652;1088;117019;-67
2021/06/24 07:21:42;;;;;;;9.47;8.33;;;;;;;17.87;80.19;99443.08;532572;1089;117745;-67
2021/06/24 07:31:49;;;;;;;11.10;7.27;;;;;;;17.84;80.42;99482.38;532555;1089;169543;-63
2021/06/24 07:41:55;;;;;;;7.67;6.17;;;;;;;17.78;80.72;99473.18;531824;1089;116293;-76
2021/06/24 07:52:01;;;;;;;6.37;5.70;;;;;;;17.88;80.76;99519.11;532501;1088;117472;-68
2021/06/24 08:02:09;;;;;;;4.30;3.17;;;;;;;18.17;80.36;99544.70;532608;1089;115915;-73
2021/06/24 08:12:15;;;;;;;4.03;3.53;;;;;;;19.02;79.53;99561.32;531783;1090;118217;-68
2021/06/24 08:22:23;;;;;;;4.40;3.10;;;;;;;20.54;77.97;99559.08;532553;1089;117032;-68
2021/06/24 08:32:31;;;;;;;3.73;3.43;;;;;;;23.07;75.00;99564.14;532569;1088;115855;-73
2021/06/24 08:42:38;;;;;;;5.10;3.53;;;;;;;25.06;69.77;99539.38;531889;1089;117043;-67
2021/06/24 08:52:48;;;;;;;3.87;3.47;;;;;;;26.38;66.33;99536.77;514681;1089;20001385;-67
2021/06/24 09:02:58;;;;;;;3.77;2.73;;;;;;;26.85;64.11;99509.05;531715;1088;116840;-67
2021/06/24 09:13:05;;;;;;;3.23;2.90;;;;;;;27.17;63.00;99494.95;532462;1089;116283;-67
2021/06/24 09:23:16;;;;;;;3.63;3.33;;;;;;;27.82;61.23;99511.20;532257;1089;115370;-67
2021/06/24 09:33:23;;;;;;;4.30;3.17;;;;;;;28.26;60.07;99491.67;531782;1089;117497;-68
2021/06/24 09:43:36;;;;;;;5.45;3.33;;;;;;;28.51;58.36;99502.52;532374;1089;116267;-67
2021/06/24 09:53:57;;;;;;;3.27;2.10;;;;;;;28.86;57.67;99505.80;531799;1089;117159;-66
2021/06/24 10:04:06;;;;;;;2.83;2.13;;;;;;;29.13;56.63;99500.98;532473;1089;116378;-67
2021/06/24 10:14:15;;;;;;;3.20;2.00;;;;;;;29.16;54.08;99514.05;531004;1090;116578;-68
2021/06/24 10:24:35;;;;;;;8.13;2.33;;;;;;;29.13;54.32;99503.69;526140;1089;115713;-65
2021/06/24 10:34:50;;;;;;;6.60;2.25;;;;;;;29.30;53.31;99506.63;531153;1088;115997;-65
2021/06/24 10:44:59;;;;;;;5.60;1.93;;;;;;;29.26;52.86;99524.33;530566;1089;115877;-65
2021/06/24 10:55:26;;;;;;;8.43;3.07;;;;;;;29.24;52.00;99523.73;532596;1089;116836;-65
2021/06/24 11:05:38;;;;;;;5.50;2.90;;;;;;;29.38;52.29;99519.02;532333;1090;116397;-71
2021/06/24 11:15:50;;;;;;;7.60;5.10;;;;;;;29.86;51.78;99522.88;532254;1089;116318;-71
2021/06/24 11:26:07;;;;;;;8.00;5.53;;;;;;;30.29;51.06;99521.08;532570;1090;117551;-70
2021/06/24 11:36:15;;;;;;;5.63;4.10;;;;;;;30.73;49.72;99514.61;531820;1089;117057;-71
2021/06/24 11:46:27;;;;;;;5.17;4.47;;;;;;;31.00;48.65;99506.02;532566;1088;116056;-71
2021/06/24 12:07:01;;;;;;;13.00;7.97;;;;;;;31.81;47.81;99494.50;532578;1089;118089;-67
2021/06/24 12:17:17;;;;;;;11.67;7.50;;;;;;;31.35;46.96;99483.49;532637;1090;116837;-66
2021/06/24 12:27:28;;;;;;;9.20;8.33;;;;;;;31.14;47.25;99476.78;531893;1089;116799;-68
2021/06/24 12:37:39;;;;;;;8.97;7.67;;;;;;;31.38;47.14;99464.02;532480;1089;117064;-66
2021/06/24 12:47:47;;;;;;;8.60;7.35;;;;;;;31.56;46.31;99462.22;530327;1089;116941;-65
2021/06/24 12:57:58;;;;;;;9.37;7.57;;;;;;;32.12;46.05;99453.52;532621;1089;116902;-69
2021/06/24 13:08:09;;;;;;;14.77;7.17;;;;;;;32.11;45.67;99446.44;531150;1088;117526;-65
2021/06/24 13:18:16;;;;;;;7.85;6.95;;;;;;;31.81;45.54;99434.79;519697;1089;117353;-68
2021/06/24 13:28:28;;;;;;;9.17;6.00;;;;;;;31.48;45.56;99425.45;532409;1089;115879;-75
2021/06/24 13:38:34;;;;;;;5.93;5.13;;;;;;;30.99;46.39;99391.33;531153;1089;116318;-67
2021/06/24 13:48:40;;;;;;;13.25;7.50;;;;;;;30.56;47.13;99382.50;531170;1089;117268;-67
2021/06/24 13:58:47;;;;;;;6.53;5.40;;;;;;;30.22;47.65;99376.84;531124;1089;116501;-69
2021/06/24 14:08:53;;;;;;;9.55;7.08;;;;;;;30.32;47.90;99376.28;530496;1089;117043;-70
2021/06/24 14:19:00;;;;;;;13.15;6.30;;;;;;;30.36;47.74;99382.86;532640;1089;116463;-69
2021/06/24 14:29:08;;;;;;;7.55;5.43;;;;;;;30.26;47.39;99383.45;532552;1089;117821;-68
2021/06/24 14:39:15;;;;;;;5.80;5.17;;;;;;;30.84;47.19;99375.58;531947;1089;116155;-71
2021/06/24 14:49:22;;;;;;;6.03;5.28;;;;;;;31.26;46.44;99363.72;530304;1089;116863;-66
2021/06/24 14:59:28;;;;;;;5.48;5.05;;;;;;;31.06;46.50;99358.69;529371;1088;116155;-68
2021/06/24 15:09:37;;;;;;;7.83;5.73;;;;;;;30.93;46.40;99340.80;531754;1089;116990;-75
2021/06/24 15:19:43;;;;;;;6.70;6.10;;;;;;;30.65;46.40;99326.14;526060;1089;116571;-71
2021/06/24 15:29:50;;;;;;;5.35;4.95;;;;;;;30.18;47.36;99308.80;531788;1089;116294;-68
2021/06/24 15:39:57;;;;;;;5.28;4.78;;;;;;;30.36;47.42;99300.78;532565;1089;116095;-71
2021/06/24 15:50:05;;;;;;;10.13;5.08;;;;;;;29.76;48.11;99295.32;532585;1089;116750;-71
2021/06/24 16:00:15;;;;;;;5.83;4.70;;;;;;;29.77;47.93;99296.97;531905;1089;117533;-73
2021/06/24 16:10:22;;;;;;;5.23;4.10;;;;;;;29.76;48.55;99312.36;528560;1089;115950;-68
2021/06/24 16:20:28;;;;;;;5.60;3.93;;;;;;;29.35;49.20;99305.88;514476;1090;20002803;-70
2021/06/24 16:30:34;;;;;;;;;;;;;;;28.94;50.20;99300.17;531452;1089;118519;-69
2021/06/24 16:40:41;;;;;;;6.37;5.37;;;;;;;28.49;50.13;99310.20;531355;1089;103768;-69
2021/06/24 16:50:47;;;;;;;6.48;5.85;;;;;;;28.17;50.49;99302.16;530336;1089;117204;-69
2021/06/24 17:00:54;;;;;;;6.00;5.50;;;;;;;27.84;51.28;99297.86;530988;1088;115989;-66
2021/06/24 17:11:01;;;;;;;6.95;6.23;;;;;;;27.26;52.20;99299.66;531207;1089;116751;-70
2021/06/24 17:21:08;;;;;;;7.93;7.30;;;;;;;26.65;53.33;99296.35;527096;1088;116196;-64
2021/06/24 17:31:15;;;;;;;9.25;8.30;;;;;;;26.33;53.79;99404.69;532382;1089;116037;-65
2021/06/24 17:41:21;;;;;;;9.10;8.05;;;;;;;25.89;54.33;99374.59;532432;1089;116424;-69
2021/06/24 17:51:29;;;;;;;9.80;8.33;;;;;;;25.48;54.53;99379.00;530339;1088;116131;-69
2021/06/24 18:01:35;;;;;;;10.53;8.50;;;;;;;25.76;54.32;99418.43;532361;1089;116125;-69
2021/06/24 18:11:43;;;;;;;9.00;7.83;;;;;;;25.46;54.43;99400.73;530362;1090;116162;-64
2021/06/24 18:21:50;;;;;;;12.18;8.75;;;;;;;25.28;54.91;99427.30;532219;1089;116729;-65
2021/06/24 18:31:56;;;;;;;9.10;8.30;;;;;;;25.29;55.63;99424.42;532583;1089;115895;-65
2021/06/24 18:42:03;;;;;;;8.33;7.55;;;;;;;25.34;55.37;99434.58;531483;1089;116686;-66
2021/06/24 18:52:09;;;;;;;7.93;7.10;;;;;;;25.23;55.73;99430.58;532502;1089;116171;-65
2021/06/24 19:02:16;;;;;;;10.93;8.03;;;;;;;25.07;56.10;99445.16;532526;1088;117216;-65
2021/06/24 19:12:24;;;;;;;6.20;4.53;;;;;;;24.52;55.45;99463.73;531749;1089;116105;-65
2021/06/24 19:22:31;;;;;;;11.47;6.20;;;;;;;24.17;55.55;99477.83;532313;1088;117423;-65
2021/06/24 19:32:38;;;;;;;9.37;5.77;;;;;;;23.95;56.15;99469.72;532608;1088;116345;-65
2021/06/24 19:42:44;;;;;;;7.00;3.93;;;;;;;23.48;55.95;99472.66;532461;1089;116171;-65
2021/06/24 19:52:51;;;;;;;5.30;3.50;;;;;;;22.84;56.02;99471.31;532664;1090;117388;-65
2021/06/24 20:02:58;;;;;;;5.50;2.45;;;;;;;22.32;56.18;99438.92;531837;1090;117045;-64
2021/06/24 20:13:05;;;;;;;5.17;3.30;;;;;;;21.94;56.64;99433.52;532599;1089;117552;-65
2021/06/24 20:23:12;;;;;;;8.00;3.15;;;;;;;21.77;57.19;99472.86;532392;1090;116862;-65
2021/06/24 20:33:18;;;;;;;8.13;4.27;;;;;;;21.62;57.98;99459.37;531794;1089;116259;-65
2021/06/24 20:43:25;;;;;;;7.47;3.07;;;;;;;21.59;58.59;99467.73;532549;1089;116524;-64
2021/06/24 20:53:32;;;;;;;4.40;3.27;;;;;;;21.67;59.24;99494.45;532496;1090;116976;-65
2021/06/24 21:03:39;;;;;;;6.75;4.65;;;;;;;21.72;59.70;99485.92;531690;1090;117041;-64
2021/06/24 21:13:46;;;;;;;10.35;3.68;;;;;;;21.68;60.04;99498.80;532563;1089;117504;-64
2021/06/24 21:23:53;;;;;;;7.67;3.37;;;;;;;21.55;60.55;99468.09;530496;1090;116668;-64
2021/06/24 21:33:59;;;;;;;5.60;3.70;;;;;;;21.40;61.94;99467.13;532369;1090;116645;-65
2021/06/24 21:44:06;;;;;;;5.27;4.67;;;;;;;21.25;63.26;99483.87;532526;1089;116401;-65
2021/06/24 21:54:13;;;;;;;7.97;4.03;;;;;;;21.27;64.27;99463.16;513488;1089;10001727;-65
2021/06/24 22:04:19;;;;;;;6.33;4.20;;;;;;;21.30;65.00;99439.78;532341;1089;116971;-65
2021/06/24 22:14:26;;;;;;;6.00;4.20;;;;;;;21.08;65.52;99420.86;532253;1089;116932;-64
2021/06/24 22:24:33;;;;;;;10.67;4.13;;;;;;;20.76;66.02;99409.22;531627;1088;117125;-69
2021/06/24 22:34:39;;;;;;;4.23;3.83;;;;;;;20.54;66.88;99451.58;524811;1089;117135;-69
2021/06/24 22:44:46;;;;;;;6.10;4.30;;;;;;;20.34;67.83;99401.23;530235;1089;116718;-70
2021/06/24 22:54:53;;;;;;;9.00;4.40;;;;;;;20.28;69.02;99364.59;532630;1090;115961;-70
2021/06/24 23:05:00;;;;;;;6.50;4.13;;;;;;;20.11;69.79;99308.61;529270;1090;116084;-68
2021/06/24 23:15:08;;;;;;;5.70;4.30;;;;;;;20.05;70.51;99290.64;531794;1090;116912;-68
2021/06/24 23:25:13;;;;;;;;;;;;;;;20.00;71.26;99275.16;532680;1088;117860;-69
2021/06/24 23:35:20;;;;;;;5.13;4.37;;;;;;;19.84;71.42;99275.11;532950;1089;101797;-69
2021/06/24 23:45:26;;;;;;;7.83;4.10;;;;;;;19.84;72.00;99269.78;531650;1089;116538;-68
2021/06/24 23:55:38;;;;;;;6.87;4.50;;;;;;;19.45;73.20;99252.64;532567;1089;116005;-70
